Time;durP1;ratioP1;P1;durP2;ratioP2;P2;SDS_P1;SDS_P2;PMS_P1;PMS_P2;Temp;Humidity;BMP_temperature;BMP_pressure;BME280_temperature;BME280_humidity;BME280_pressure;Samples;Min_cycle;Max_cycle;Signal;HPM_P1;HPM_P2
2022/08/04 00:00:05;;;;;;;9.38;2.15;;;;;;;;;;5090540;28;20092;-84
2022/08/04 00:03:10;;;;;;;5.38;2.13;;;;;;;;;;5096091;28;20103;-82
2022/08/04 00:06:10;;;;;;;5.93;2.30;;;;;;;;;;5095825;28;20040;-85
2022/08/04 00:08:48;;;;;;;7.97;1.80;;;;;;;;;;5096287;28;20033;-83
2022/08/04 00:11:19;;;;;;;7.93;2.28;;;;;;;;;;5096428;28;20047;-84
2022/08/04 00:13:52;;;;;;;6.03;2.00;;;;;;;;;;5102397;28;20118;-88
2022/08/04 00:16:18;;;;;;;4.72;1.65;;;;;;;;;;5096020;28;20020;-84
2022/08/04 00:19:08;;;;;;;4.80;1.92;;;;;;;;;;5094834;28;20031;-83
2022/08/04 00:21:38;;;;;;;8.70;2.22;;;;;;;;;;5101714;28;20047;-84
2022/08/04 00:24:05;;;;;;;7.10;2.35;;;;;;;;;;5079184;28;20047;-86
2022/08/04 00:26:31;;;;;;;5.18;2.00;;;;;;;;;;5096760;28;20087;-83
2022/08/04 00:28:57;;;;;;;8.30;2.22;;;;;;;;;;5095295;28;20061;-85
2022/08/04 00:31:23;;;;;;;11.98;2.08;;;;;;;;;;5098578;28;20267;-88
2022/08/04 00:33:49;;;;;;;5.65;1.90;;;;;;;;;;5100769;28;20043;-84
2022/08/04 00:36:16;;;;;;;5.53;1.50;;;;;;;;;;5101986;28;20250;-86
2022/08/04 00:38:43;;;;;;;8.77;2.15;;;;;;;;;;5101213;28;20024;-88
2022/08/04 00:41:29;;;;;;;4.85;2.00;;;;;;;;;;5094934;28;20032;-86
2022/08/04 00:44:06;;;;;;;4.57;1.60;;;;;;;;;;5101376;28;20024;-82
2022/08/04 00:46:45;;;;;;;6.40;2.00;;;;;;;;;;5095189;28;20271;-84
2022/08/04 00:49:31;;;;;;;7.75;1.77;;;;;;;;;;5101067;28;20208;-84
2022/08/04 00:52:31;;;;;;;8.45;2.25;;;;;;;;;;5105018;28;20047;-87
2022/08/04 00:55:23;;;;;;;6.47;1.80;;;;;;;;;;5110825;28;20055;-82
2022/08/04 00:58:01;;;;;;;7.00;1.73;;;;;;;;;;5113677;28;20291;-87
2022/08/04 01:00:41;;;;;;;5.68;1.98;;;;;;;;;;5121719;28;20054;-87
2022/08/04 01:03:44;;;;;;;7.72;1.80;;;;;;;;;;5102587;28;20215;-89
2022/08/04 01:06:39;;;;;;;3.58;1.50;;;;;;;;;;5114867;28;20027;-88
2022/08/04 01:09:32;;;;;;;10.63;1.80;;;;;;;;;;5113063;28;20035;-86
2022/08/04 01:12:31;;;;;;;6.63;1.80;;;;;;;;;;5089460;28;20066;-86
2022/08/04 01:15:10;;;;;;;6.45;1.95;;;;;;;;;;5119241;28;20072;-87
2022/08/04 01:17:57;;;;;;;5.40;1.70;;;;;;;;;;5121477;28;20027;-87
2022/08/04 01:20:32;;;;;;;4.85;1.70;;;;;;;;;;5085460;28;20233;-88
2022/08/04 01:23:31;;;;;;;8.20;1.70;;;;;;;;;;5115137;28;20054;-85
2022/08/04 01:26:06;;;;;;;5.90;1.98;;;;;;;;;;5114516;28;20243;-84
2022/08/04 01:29:02;;;;;;;5.38;1.80;;;;;;;;;;5118514;28;20038;-82
2022/08/04 01:31:33;;;;;;;16.33;2.22;;;;;;;;;;5121288;28;20051;-87
2022/08/04 01:34:05;;;;;;;11.27;2.15;;;;;;;;;;5108626;28;20024;-84
2022/08/04 01:36:34;;;;;;;7.45;1.70;;;;;;;;;;5120175;28;20342;-87
2022/08/04 01:39:39;;;;;;;6.10;1.88;;;;;;;;;;5114525;28;20098;-86
2022/08/04 01:41:46;;;;;;;10.35;1.98;;;;;;;;;;5114472;28;20027;-83
2022/08/04 01:44:13;;;;;;;5.80;1.85;;;;;;;;;;5121084;28;20072;-86
2022/08/04 01:46:39;;;;;;;8.00;1.75;;;;;;;;;;5102641;28;20043;-83
2022/08/04 01:49:06;;;;;;;5.30;1.58;;;;;;;;;;5118692;28;20027;-86
2022/08/04 01:51:34;;;;;;;5.82;1.73;;;;;;;;;;5121256;28;20028;-89
2022/08/04 01:54:00;;;;;;;8.55;1.92;;;;;;;;;;5097281;28;20055;-88
2022/08/04 01:56:29;;;;;;;7.03;1.60;;;;;;;;;;5100976;28;20020;-88
2022/08/04 01:58:56;;;;;;;5.07;1.75;;;;;;;;;;5096296;28;20073;-84
2022/08/04 02:01:22;;;;;;;5.25;1.70;;;;;;;;;;5095181;28;20024;-81
2022/08/04 02:03:47;;;;;;;5.97;1.60;;;;;;;;;;5100424;28;20039;-85
2022/08/04 02:06:48;;;;;;;8.15;1.67;;;;;;;;;;5100588;28;20287;-87
2022/08/04 02:09:34;;;;;;;7.28;1.80;;;;;;;;;;5092925;28;20028;-88
2022/08/04 02:12:23;;;;;;;5.50;1.60;;;;;;;;;;5094147;28;20028;-86
2022/08/04 02:15:01;;;;;;;5.90;1.67;;;;;;;;;;5100846;28;20067;-85
2022/08/04 02:17:32;;;;;;;5.15;1.92;;;;;;;;;;5107362;28;20019;-84
2022/08/04 02:20:00;;;;;;;4.35;1.70;;;;;;;;;;5104419;28;20072;-86
2022/08/04 02:22:27;;;;;;;7.25;1.95;;;;;;;;;;5100723;28;20042;-85
2022/08/04 02:25:22;;;;;;;8.48;1.70;;;;;;;;;;5099706;28;20092;-86
2022/08/04 02:28:03;;;;;;;9.82;1.90;;;;;;;;;;5091525;28;20059;-88
2022/08/04 02:30:58;;;;;;;5.05;1.73;;;;;;;;;;5081827;28;20040;-88
2022/08/04 02:33:34;;;;;;;7.10;1.77;;;;;;;;;;5080434;28;20036;-85
2022/08/04 02:36:03;;;;;;;5.88;1.80;;;;;;;;;;5093589;28;20062;-86
2022/08/04 02:39:00;;;;;;;4.10;1.70;;;;;;;;;;5103301;28;20022;-86
2022/08/04 02:41:27;;;;;;;7.75;2.00;;;;;;;;;;5072951;28;20221;-86
2022/08/04 02:43:56;;;;;;;5.18;2.00;;;;;;;;;;5103857;28;20197;-85
2022/08/04 02:46:22;;;;;;;4.68;1.80;;;;;;;;;;5104205;28;20086;-85
2022/08/04 02:48:50;;;;;;;6.03;1.70;;;;;;;;;;5084365;28;20212;-87
2022/08/04 02:51:21;;;;;;;5.07;1.90;;;;;;;;;;5104018;28;20032;-86
2022/08/04 02:53:51;;;;;;;4.90;1.80;;;;;;;;;;5121727;28;20189;-86
2022/08/04 02:56:20;;;;;;;5.10;1.80;;;;;;;;;;5119394;28;20077;-86
2022/08/04 02:58:51;;;;;;;3.85;1.70;;;;;;;;;;5124200;28;20028;-85
2022/08/04 03:01:16;;;;;;;4.72;1.75;;;;;;;;;;5118378;28;20023;-85
2022/08/04 03:03:59;;;;;;;5.28;1.92;;;;;;;;;;5124580;28;20312;-84
2022/08/04 03:06:59;;;;;;;5.90;2.00;;;;;;;;;;5115142;28;20136;-82
2022/08/04 03:09:40;;;;;;;4.35;1.70;;;;;;;;;;5104730;28;20047;-82
2022/08/04 03:12:23;;;;;;;4.53;1.70;;;;;;;;;;5112772;28;20255;-83
2022/08/04 03:15:16;;;;;;;5.22;1.70;;;;;;;;;;5117391;28;20099;-85
2022/08/04 03:17:50;;;;;;;6.70;2.10;;;;;;;;;;5111566;28;20028;-83
2022/08/04 03:20:33;;;;;;;4.90;1.80;;;;;;;;;;5123656;28;20020;-87
2022/08/04 03:23:20;;;;;;;5.55;2.03;;;;;;;;;;5117617;28;20034;-82
2022/08/04 03:26:15;;;;;;;10.05;1.90;;;;;;;;;;5094970;28;20346;-85
2022/08/04 03:28:49;;;;;;;6.95;1.70;;;;;;;;;;5122219;28;20039;-82
2022/08/04 03:31:17;;;;;;;7.35;2.00;;;;;;;;;;5119415;28;20028;-85
2022/08/04 03:34:20;;;;;;;6.93;2.00;;;;;;;;;;5123455;28;20019;-81
2022/08/04 03:37:02;;;;;;;7.15;1.80;;;;;;;;;;5118688;28;20039;-80
2022/08/04 03:39:55;;;;;;;5.50;2.03;;;;;;;;;;5112120;28;20049;-85
2022/08/04 03:42:37;;;;;;;5.90;1.90;;;;;;;;;;5118056;28;20182;-83
2022/08/04 03:45:40;;;;;;;5.32;1.90;;;;;;;;;;5116935;28;20023;-85
2022/08/04 03:48:38;;;;;;;7.95;1.95;;;;;;;;;;5115858;28;20083;-85
2022/08/04 03:54:31;;;;;;;7.43;1.90;;;;;;;;;;5121366;28;20027;-84
2022/08/04 03:57:28;;;;;;;8.98;2.00;;;;;;;;;;5123048;28;20091;-86
2022/08/04 04:00:14;;;;;;;7.43;2.10;;;;;;;;;;5112461;28;20020;-87
2022/08/04 04:03:10;;;;;;;9.65;1.95;;;;;;;;;;5123096;28;20590;-88
2022/08/04 04:06:00;;;;;;;11.52;2.42;;;;;;;;;;5110782;28;20016;-86
2022/08/04 04:08:34;;;;;;;4.80;2.10;;;;;;;;;;5112856;28;20082;-83
2022/08/04 04:11:37;;;;;;;6.05;2.00;;;;;;;;;;5099776;28;20039;-83
2022/08/04 04:14:18;;;;;;;7.15;1.90;;;;;;;;;;5115734;28;20032;-84
2022/08/04 04:17:16;;;;;;;6.35;2.22;;;;;;;;;;5111604;28;20024;-81
2022/08/04 04:20:09;;;;;;;5.63;2.00;;;;;;;;;;5113567;28;20254;-84
2022/08/04 04:23:06;;;;;;;5.53;2.00;;;;;;;;;;5122876;28;20345;-85
2022/08/04 04:25:41;;;;;;;6.30;2.30;;;;;;;;;;5110458;28;20027;-85
2022/08/04 04:28:20;;;;;;;7.85;2.45;;;;;;;;;;5112997;28;20019;-88
2022/08/04 04:30:48;;;;;;;7.00;2.10;;;;;;;;;;5122045;28;20019;-86
2022/08/04 04:34:03;;;;;;;5.18;2.20;;;;;;;;;;5124926;28;20344;-86
2022/08/04 04:36:35;;;;;;;6.78;1.90;;;;;;;;;;5060964;28;20046;-85
2022/08/04 04:39:12;;;;;;;6.32;2.00;;;;;;;;;;5121457;28;20102;-86
2022/08/04 04:41:40;;;;;;;6.50;2.40;;;;;;;;;;5122091;28;20058;-87
2022/08/04 04:44:24;;;;;;;9.77;2.30;;;;;;;;;;5121906;28;20019;-86
2022/08/04 04:46:59;;;;;;;6.45;2.05;;;;;;;;;;5119692;28;20356;-88
2022/08/04 04:49:36;;;;;;;6.20;2.20;;;;;;;;;;5116522;28;20215;-90
2022/08/04 04:52:12;;;;;;;8.65;2.10;;;;;;;;;;5132156;28;20042;-84
2022/08/04 04:54:50;;;;;;;6.32;2.20;;;;;;;;;;5122367;28;20027;-83
2022/08/04 04:57:18;;;;;;;6.30;2.03;;;;;;;;;;5122656;28;20016;-86
2022/08/04 04:59:52;;;;;;;10.32;2.25;;;;;;;;;;5121229;28;20214;-85
2022/08/04 05:02:42;;;;;;;8.65;2.90;;;;;;;;;;5120290;28;20386;-86
2022/08/04 05:05:17;;;;;;;8.73;2.40;;;;;;;;;;5121899;28;20039;-83
2022/08/04 05:07:52;;;;;;;6.28;1.98;;;;;;;;;;5121503;28;20030;-85
2022/08/04 05:10:52;;;;;;;6.07;2.25;;;;;;;;;;5116806;28;20034;-86
2022/08/04 05:13:40;;;;;;;8.70;2.30;;;;;;;;;;5113676;28;20047;-87
2022/08/04 05:16:24;;;;;;;9.57;2.33;;;;;;;;;;5115832;28;20024;-84
2022/08/04 05:19:16;;;;;;;3.38;1.98;;;;;;;;;;5103211;28;20028;-88
2022/08/04 05:22:21;;;;;;;8.98;2.42;;;;;;;;;;5109041;28;20354;-87
2022/08/04 05:24:51;;;;;;;5.38;2.00;;;;;;;;;;5014881;28;20053;-81
2022/08/04 05:27:24;;;;;;;6.50;2.22;;;;;;;;;;5079118;28;20040;-90
2022/08/04 05:29:58;;;;;;;6.70;2.03;;;;;;;;;;5121021;28;20019;-84
2022/08/04 05:32:29;;;;;;;10.88;2.38;;;;;;;;;;5117879;28;20043;-86
2022/08/04 05:35:01;;;;;;;5.93;1.75;;;;;;;;;;5103862;28;20086;-86
2022/08/04 05:37:29;;;;;;;7.75;2.25;;;;;;;;;;5114537;28;20026;-86
2022/08/04 05:40:04;;;;;;;5.38;2.00;;;;;;;;;;5121301;28;20053;-83
2022/08/04 05:42:34;;;;;;;6.70;2.05;;;;;;;;;;5115071;28;20420;-87
2022/08/04 05:45:01;;;;;;;7.82;2.20;;;;;;;;;;5114605;28;20031;-88
2022/08/04 05:47:28;;;;;;;6.57;2.22;;;;;;;;;;5120498;28;20019;-88
2022/08/04 05:49:55;;;;;;;9.02;2.30;;;;;;;;;;5114903;28;20098;-85
2022/08/04 05:52:21;;;;;;;5.20;2.13;;;;;;;;;;5120722;28;20324;-89
2022/08/04 05:54:48;;;;;;;6.18;2.13;;;;;;;;;;5118297;28;20069;-86
2022/08/04 05:57:14;;;;;;;7.82;2.10;;;;;;;;;;5121383;28;20239;-86
2022/08/04 05:59:45;;;;;;;6.18;2.15;;;;;;;;;;5120863;28;20418;-89
2022/08/04 06:02:13;;;;;;;6.63;2.20;;;;;;;;;;5121393;28;20028;-89
2022/08/04 06:04:40;;;;;;;5.43;1.98;;;;;;;;;;5120934;28;20081;-88
2022/08/04 06:07:07;;;;;;;8.43;2.22;;;;;;;;;;5114166;28;20019;-86
2022/08/04 06:09:32;;;;;;;8.60;2.33;;;;;;;;;;5125883;28;20054;-87
2022/08/04 06:12:01;;;;;;;7.30;2.40;;;;;;;;;;5125162;28;20332;-87
2022/08/04 06:14:34;;;;;;;7.78;2.28;;;;;;;;;;5125093;28;20124;-89
2022/08/04 06:17:04;;;;;;;7.35;2.15;;;;;;;;;;5118934;28;20327;-86
2022/08/04 06:19:30;;;;;;;8.93;2.60;;;;;;;;;;5107438;28;20027;-88
2022/08/04 06:21:58;;;;;;;10.90;2.38;;;;;;;;;;5124118;28;20080;-87
2022/08/04 06:24:27;;;;;;;11.30;2.30;;;;;;;;;;5125224;28;20023;-88
2022/08/04 06:26:54;;;;;;;7.03;2.30;;;;;;;;;;5123316;28;20055;-86
2022/08/04 06:29:25;;;;;;;8.35;2.45;;;;;;;;;;5094192;28;20024;-90
2022/08/04 06:31:58;;;;;;;9.80;2.35;;;;;;;;;;5122893;28;20171;-90
2022/08/04 06:34:28;;;;;;;8.07;2.25;;;;;;;;;;5108714;28;20312;-87
2022/08/04 06:36:54;;;;;;;8.00;2.30;;;;;;;;;;5124567;28;20319;-88
2022/08/04 06:39:22;;;;;;;6.72;2.03;;;;;;;;;;5119090;28;20075;-90
2022/08/04 06:41:50;;;;;;;9.30;2.50;;;;;;;;;;5125470;28;20225;-89
2022/08/04 06:44:17;;;;;;;9.43;2.38;;;;;;;;;;5123931;28;20019;-88
2022/08/04 06:46:43;;;;;;;8.07;2.22;;;;;;;;;;5100483;28;20028;-89
2022/08/04 06:49:09;;;;;;;8.85;2.28;;;;;;;;;;5125067;28;20094;-89
2022/08/04 06:51:40;;;;;;;10.38;2.20;;;;;;;;;;5117779;28;20026;-87
2022/08/04 06:54:05;;;;;;;10.85;2.30;;;;;;;;;;5113786;28;20031;-89
2022/08/04 06:56:33;;;;;;;10.45;2.67;;;;;;;;;;5083104;28;20042;-85
2022/08/04 06:59:00;;;;;;;9.90;2.30;;;;;;;;;;5123625;28;20023;-88
2022/08/04 07:01:30;;;;;;;10.80;2.55;;;;;;;;;;5122091;28;20024;-90
2022/08/04 07:03:56;;;;;;;8.05;2.03;;;;;;;;;;5121890;28;20098;-86
2022/08/04 07:06:22;;;;;;;8.13;2.25;;;;;;;;;;5120816;28;20022;-86
2022/08/04 07:08:49;;;;;;;11.35;2.70;;;;;;;;;;5121234;28;20024;-89
2022/08/04 07:11:15;;;;;;;10.38;2.40;;;;;;;;;;5127211;28;20027;-89
2022/08/04 07:13:45;;;;;;;8.63;2.55;;;;;;;;;;5122510;28;20061;-79
2022/08/04 07:16:14;;;;;;;13.45;2.90;;;;;;;;;;5126787;28;20054;-89
2022/08/04 07:18:39;;;;;;;7.05;2.10;;;;;;;;;;5119004;28;20020;-85
2022/08/04 07:21:05;;;;;;;11.48;2.72;;;;;;;;;;5124306;28;20193;-83
2022/08/04 07:23:44;;;;;;;9.30;2.45;;;;;;;;;;5124691;28;20298;-82
2022/08/04 07:26:09;;;;;;;11.48;2.50;;;;;;;;;;5097015;28;20069;-84
2022/08/04 07:28:35;;;;;;;12.52;2.88;;;;;;;;;;5126250;28;20011;-82
2022/08/04 07:31:01;;;;;;;11.55;2.42;;;;;;;;;;5117555;28;20024;-81
2022/08/04 07:33:27;;;;;;;9.75;2.40;;;;;;;;;;5113600;28;20055;-85
2022/08/04 07:35:55;;;;;;;8.52;2.40;;;;;;;;;;5123020;28;20140;-80
2022/08/04 07:38:27;;;;;;;10.82;2.55;;;;;;;;;;5119533;28;20023;-80
2022/08/04 07:40:53;;;;;;;6.75;2.47;;;;;;;;;;5120052;28;20320;-83
2022/08/04 07:43:19;;;;;;;10.98;3.53;;;;;;;;;;5125513;28;20031;-84
2022/08/04 07:45:46;;;;;;;11.23;2.60;;;;;;;;;;5123956;28;20091;-86
2022/08/04 07:48:13;;;;;;;14.80;2.70;;;;;;;;;;5100105;28;20402;-84
2022/08/04 07:50:41;;;;;;;17.30;2.50;;;;;;;;;;5101072;28;20050;-87
2022/08/04 07:53:14;;;;;;;10.25;2.80;;;;;;;;;;5122359;28;20424;-78
2022/08/04 07:55:42;;;;;;;10.65;2.60;;;;;;;;;;5121316;28;20393;-87
2022/08/04 07:58:08;;;;;;;12.90;2.30;;;;;;;;;;5120049;28;20030;-85
2022/08/04 08:00:33;;;;;;;11.65;2.78;;;;;;;;;;5096853;28;20027;-84
2022/08/04 08:03:00;;;;;;;12.98;2.35;;;;;;;;;;5123181;28;20016;-82
2022/08/04 08:05:25;;;;;;;9.27;2.40;;;;;;;;;;5098883;28;20028;-84
2022/08/04 08:07:51;;;;;;;8.45;2.38;;;;;;;;;;5121857;28;20042;-87
2022/08/04 08:10:17;;;;;;;10.85;2.53;;;;;;;;;;5118187;28;20130;-87
2022/08/04 08:12:43;;;;;;;12.18;2.55;;;;;;;;;;5120872;28;20035;-84
2022/08/04 08:15:13;;;;;;;13.75;2.35;;;;;;;;;;5122986;28;20038;-88
2022/08/04 08:17:39;;;;;;;12.10;2.88;;;;;;;;;;5123209;28;20311;-87
2022/08/04 08:20:08;;;;;;;12.70;2.63;;;;;;;;;;5122372;28;20101;-87
2022/08/04 08:22:36;;;;;;;8.85;2.30;;;;;;;;;;5122403;28;20045;-87
2022/08/04 08:25:01;;;;;;;9.00;2.50;;;;;;;;;;5122006;28;20201;-84
2022/08/04 08:27:27;;;;;;;10.55;2.50;;;;;;;;;;5122314;28;20007;-84
2022/08/04 08:29:53;;;;;;;7.55;2.63;;;;;;;;;;5122997;28;20030;-89
2022/08/04 08:32:19;;;;;;;11.27;2.67;;;;;;;;;;5123126;28;20019;-90
2022/08/04 08:34:48;;;;;;;12.55;3.15;;;;;;;;;;5122795;28;20030;-89
2022/08/04 08:37:25;;;;;;;8.55;2.50;;;;;;;;;;5117868;28;20023;-86
2022/08/04 08:40:01;;;;;;;10.05;2.78;;;;;;;;;;5123249;28;20288;-86
2022/08/04 08:42:55;;;;;;;11.40;2.85;;;;;;;;;;5115455;28;20015;-87
2022/08/04 08:45:58;;;;;;;10.23;2.75;;;;;;;;;;5112003;28;20023;-86
2022/08/04 08:48:38;;;;;;;13.30;3.20;;;;;;;;;;5088311;28;20031;-90
2022/08/04 08:51:30;;;;;;;19.42;2.90;;;;;;;;;;5122915;28;20027;-91
2022/08/04 08:54:08;;;;;;;14.93;3.50;;;;;;;;;;5122550;28;20043;-82
2022/08/04 08:56:45;;;;;;;13.38;3.00;;;;;;;;;;5122983;28;20220;-87
2022/08/04 08:59:48;;;;;;;8.43;2.80;;;;;;;;;;5116558;28;20026;-85
2022/08/04 09:02:31;;;;;;;8.15;2.88;;;;;;;;;;5122980;28;20277;-86
2022/08/04 09:05:05;;;;;;;11.68;3.20;;;;;;;;;;5110063;28;20023;-89
2022/08/04 09:07:39;;;;;;;12.55;3.20;;;;;;;;;;5118667;28;20038;-87
2022/08/04 09:10:15;;;;;;;12.35;3.10;;;;;;;;;;5122046;28;20032;-90
2022/08/04 09:12:55;;;;;;;12.25;3.30;;;;;;;;;;5115745;28;20169;-90
2022/08/04 09:15:35;;;;;;;18.23;3.13;;;;;;;;;;5117141;28;20015;-87
2022/08/04 09:18:15;;;;;;;8.20;2.45;;;;;;;;;;5125784;28;20086;-95
2022/08/04 09:20:50;;;;;;;8.05;2.67;;;;;;;;;;5117132;28;20030;-94
2022/08/04 09:23:53;;;;;;;10.43;2.60;;;;;;;;;;5121993;28;20040;-93
2022/08/04 09:26:39;;;;;;;7.80;2.63;;;;;;;;;;5120040;28;20244;-92
2022/08/04 09:29:16;;;;;;;11.63;2.70;;;;;;;;;;5112669;28;20048;-89
2022/08/04 09:31:57;;;;;;;10.45;2.60;;;;;;;;;;5119355;28;20095;-93
2022/08/04 09:34:38;;;;;;;11.98;2.60;;;;;;;;;;5113645;28;20061;-88
2022/08/04 09:37:21;;;;;;;10.35;3.08;;;;;;;;;;5120660;28;20021;-90
2022/08/04 09:40:06;;;;;;;6.53;2.50;;;;;;;;;;5117793;28;20042;-89
2022/08/04 09:43:05;;;;;;;14.32;3.33;;;;;;;;;;5116426;28;20047;-88
2022/08/04 09:46:13;;;;;;;12.50;2.72;;;;;;;;;;5119786;28;20024;-89
2022/08/04 09:48:46;;;;;;;8.82;2.63;;;;;;;;;;4998074;28;20148;-90
2022/08/04 09:51:20;;;;;;;9.68;2.50;;;;;;;;;;5101190;28;20040;-90
2022/08/04 09:54:08;;;;;;;9.13;2.35;;;;;;;;;;5122903;28;20336;-87
2022/08/04 09:57:15;;;;;;;11.18;3.08;;;;;;;;;;5122303;28;20047;-87
2022/08/04 10:00:00;;;;;;;12.35;2.55;;;;;;;;;;5122790;28;20032;-87
2022/08/04 10:02:29;;;;;;;12.83;2.60;;;;;;;;;;5115408;28;20035;-89
2022/08/04 10:04:56;;;;;;;9.85;2.63;;;;;;;;;;5105998;28;20087;-87
2022/08/04 10:07:43;;;;;;;8.27;2.50;;;;;;;;;;5118415;28;20027;-87
2022/08/04 10:10:31;;;;;;;9.70;2.35;;;;;;;;;;5115030;28;20031;-86
2022/08/04 10:13:16;;;;;;;7.20;2.30;;;;;;;;;;5118672;28;20088;-91
2022/08/04 10:15:56;;;;;;;11.27;2.30;;;;;;;;;;5123776;28;20202;-86
2022/08/04 10:18:34;;;;;;;7.57;2.50;;;;;;;;;;5122248;28;20023;-89
2022/08/04 10:21:45;;;;;;;10.45;2.50;;;;;;;;;;5112789;28;20359;-86
2022/08/04 10:24:31;;;;;;;9.13;2.30;;;;;;;;;;5112449;28;20341;-84
2022/08/04 10:27:11;;;;;;;6.22;1.90;;;;;;;;;;5110683;28;20219;-82
2022/08/04 10:29:44;;;;;;;6.85;1.90;;;;;;;;;;5116299;28;20051;-89
2022/08/04 10:32:33;;;;;;;6.32;1.92;;;;;;;;;;5115835;28;20015;-84
2022/08/04 10:35:12;;;;;;;4.10;1.67;;;;;;;;;;5114434;28;20035;-86
2022/08/04 10:38:14;;;;;;;7.13;1.98;;;;;;;;;;5114519;28;20011;-84
2022/08/04 10:40:45;;;;;;;6.60;2.08;;;;;;;;;;5114448;28;20173;-85
2022/08/04 10:43:28;;;;;;;7.47;1.90;;;;;;;;;;5119233;28;20034;-83
2022/08/04 10:46:02;;;;;;;9.23;1.95;;;;;;;;;;5113509;28;20060;-85
2022/08/04 10:49:00;;;;;;;7.50;1.85;;;;;;;;;;5113342;28;20019;-84
2022/08/04 10:51:46;;;;;;;8.63;2.00;;;;;;;;;;5113464;28;20049;-83
2022/08/04 10:54:30;;;;;;;5.88;2.05;;;;;;;;;;5113241;28;20040;-83
2022/08/04 10:57:01;;;;;;;5.22;1.80;;;;;;;;;;5124592;28;20053;-86
2022/08/04 10:59:52;;;;;;;8.57;1.80;;;;;;;;;;5117376;28;20037;-84
2022/08/04 11:02:42;;;;;;;8.57;1.90;;;;;;;;;;5124120;28;20019;-85
2022/08/04 11:05:25;;;;;;;5.72;2.00;;;;;;;;;;5117946;28;20035;-84
2022/08/04 11:07:55;;;;;;;7.22;1.90;;;;;;;;;;5122980;28;20392;-86
2022/08/04 11:10:23;;;;;;;6.53;1.77;;;;;;;;;;5123615;28;20034;-90
2022/08/04 11:12:58;;;;;;;5.50;1.80;;;;;;;;;;5105968;28;20307;-87
2022/08/04 11:15:33;;;;;;;4.80;1.75;;;;;;;;;;5123988;28;20027;-86
2022/08/04 11:18:04;;;;;;;4.30;1.80;;;;;;;;;;5117095;28;20055;-86
2022/08/04 11:20:42;;;;;;;5.28;1.48;;;;;;;;;;5111111;28;20158;-91
2022/08/04 11:23:10;;;;;;;4.78;1.73;;;;;;;;;;5124200;28;20216;-85
2022/08/04 11:25:54;;;;;;;5.88;1.90;;;;;;;;;;5123015;28;20338;-82
2022/08/04 11:28:19;;;;;;;7.03;2.10;;;;;;;;;;5123527;28;20043;-84
2022/08/04 11:30:49;;;;;;;9.20;1.90;;;;;;;;;;5123963;28;20235;-85
2022/08/04 11:33:34;;;;;;;5.03;2.15;;;;;;;;;;5123390;28;20039;-86
2022/08/04 11:36:12;;;;;;;5.83;1.70;;;;;;;;;;5123554;28;20039;-81
2022/08/04 11:39:07;;;;;;;6.65;2.10;;;;;;;;;;5119658;28;20023;-87
2022/08/04 11:41:55;;;;;;;4.40;1.90;;;;;;;;;;5116809;28;20035;-87
2022/08/04 11:44:48;;;;;;;9.90;2.00;;;;;;;;;;5111047;28;20339;-84
2022/08/04 11:47:19;;;;;;;7.10;1.70;;;;;;;;;;5112126;28;20062;-89
2022/08/04 11:49:50;;;;;;;7.57;1.73;;;;;;;;;;5122573;28;20033;-87
2022/08/04 11:52:18;;;;;;;6.70;1.73;;;;;;;;;;5123385;28;20067;-86
2022/08/04 11:54:45;;;;;;;5.85;1.75;;;;;;;;;;5122121;28;20069;-89
2022/08/04 11:57:11;;;;;;;7.47;1.90;;;;;;;;;;5105127;28;20046;-84
2022/08/04 11:59:39;;;;;;;5.70;1.70;;;;;;;;;;5122998;28;20339;-86
2022/08/04 12:02:40;;;;;;;5.47;1.60;;;;;;;;;;5118538;28;20023;-82
2022/08/04 12:05:08;;;;;;;4.18;1.77;;;;;;;;;;5110520;28;20024;-84
2022/08/04 12:07:39;;;;;;;5.18;1.70;;;;;;;;;;5118763;28;20060;-80
2022/08/04 12:10:25;;;;;;;4.00;1.65;;;;;;;;;;5122056;28;20472;-86
2022/08/04 12:13:15;;;;;;;8.57;1.95;;;;;;;;;;5123140;28;20050;-84
2022/08/04 12:15:55;;;;;;;6.20;1.73;;;;;;;;;;5093998;28;20031;-86
2022/08/04 12:18:33;;;;;;;4.90;1.65;;;;;;;;;;5122957;28;20041;-87
2022/08/04 12:21:07;;;;;;;6.57;1.70;;;;;;;;;;5116197;28;20019;-84
2022/08/04 12:23:40;;;;;;;6.47;1.90;;;;;;;;;;5122477;28;20016;-86
2022/08/04 12:26:09;;;;;;;4.30;1.45;;;;;;;;;;5129447;28;20162;-84
2022/08/04 12:28:40;;;;;;;5.40;1.65;;;;;;;;;;5122419;28;20054;-85
2022/08/04 12:31:25;;;;;;;4.40;1.80;;;;;;;;;;5122421;28;20091;-84
2022/08/04 12:33:53;;;;;;;;;;;;;;;;;;5118786;28;20027;-82
2022/08/04 12:36:25;;;;;;;9.52;1.80;;;;;;;;;;5122325;28;20240;-83
2022/08/04 12:39:14;;;;;;;14.10;1.70;;;;;;;;;;5117303;28;20040;-84
2022/08/04 12:41:50;;;;;;;4.35;1.70;;;;;;;;;;5116911;28;20057;-82
2022/08/04 12:44:16;;;;;;;6.78;1.60;;;;;;;;;;5109249;28;20211;-83
2022/08/04 12:46:45;;;;;;;7.63;2.00;;;;;;;;;;5121816;28;20284;-83
2022/08/04 12:49:11;;;;;;;5.97;1.60;;;;;;;;;;5121945;28;20027;-82
2022/08/04 12:51:41;;;;;;;5.93;1.70;;;;;;;;;;5122353;28;20105;-84
2022/08/04 12:54:08;;;;;;;8.73;1.73;;;;;;;;;;5113263;28;20039;-79
2022/08/04 12:56:35;;;;;;;9.23;1.80;;;;;;;;;;5115510;28;20041;-83
2022/08/04 12:59:04;;;;;;;5.13;1.67;;;;;;;;;;5121918;28;20042;-89
2022/08/04 13:01:31;;;;;;;5.75;1.60;;;;;;;;;;5096986;28;20123;-83
2022/08/04 13:03:58;;;;;;;3.92;1.63;;;;;;;;;;5113818;28;20035;-84
2022/08/04 13:06:31;;;;;;;5.18;1.60;;;;;;;;;;5115097;28;20016;-85
2022/08/04 13:09:06;;;;;;;4.47;1.50;;;;;;;;;;5105490;28;20035;-84
2022/08/04 13:11:46;;;;;;;4.28;1.50;;;;;;;;;;5121368;28;20023;-87
2022/08/04 13:14:13;;;;;;;5.50;1.70;;;;;;;;;;5121720;28;20031;-85
2022/08/04 13:16:39;;;;;;;3.35;1.80;;;;;;;;;;5121251;28;20075;-85
2022/08/04 13:19:07;;;;;;;3.42;1.63;;;;;;;;;;5121671;28;20073;-86
2022/08/04 13:21:33;;;;;;;5.70;1.60;;;;;;;;;;5101191;28;20024;-87
2022/08/04 13:24:05;;;;;;;5.35;1.60;;;;;;;;;;5117057;28;20032;-88
2022/08/04 13:26:33;;;;;;;5.90;1.70;;;;;;;;;;5122755;28;20019;-88
2022/08/04 13:29:08;;;;;;;5.45;1.75;;;;;;;;;;5123943;28;20102;-87
2022/08/04 13:31:35;;;;;;;4.50;1.55;;;;;;;;;;5125191;28;20027;-86
2022/08/04 13:34:06;;;;;;;4.65;1.50;;;;;;;;;;5119007;28;20023;-85
2022/08/04 13:36:34;;;;;;;3.70;1.42;;;;;;;;;;5122346;28;20020;-83
2022/08/04 13:39:07;;;;;;;7.93;1.70;;;;;;;;;;5120544;28;20019;-89
2022/08/04 13:41:34;;;;;;;5.90;1.85;;;;;;;;;;5122181;28;20409;-83
2022/08/04 13:44:02;;;;;;;3.30;1.50;;;;;;;;;;5114156;28;20050;-86
2022/08/04 13:46:31;;;;;;;3.20;1.70;;;;;;;;;;5114094;28;20077;-83
2022/08/04 13:48:58;;;;;;;4.75;1.60;;;;;;;;;;5121915;28;20055;-85
2022/08/04 13:51:32;;;;;;;3.25;1.55;;;;;;;;;;5114799;28;20088;-81
2022/08/04 13:53:59;;;;;;;5.03;1.60;;;;;;;;;;5119556;28;20044;-85
2022/08/04 13:56:45;;;;;;;4.40;1.77;;;;;;;;;;5121198;28;20031;-85
2022/08/04 13:59:25;;;;;;;3.65;1.60;;;;;;;;;;5118820;28;20227;-84
2022/08/04 14:01:58;;;;;;;7.60;1.70;;;;;;;;;;5121609;28;20035;-86
2022/08/04 14:04:26;;;;;;;6.00;1.70;;;;;;;;;;5121093;28;20037;-83
2022/08/04 14:07:02;;;;;;;6.60;1.70;;;;;;;;;;5114563;28;20271;-84
2022/08/04 14:09:31;;;;;;;4.57;1.70;;;;;;;;;;5120334;28;20024;-86
2022/08/04 14:12:06;;;;;;;4.00;1.77;;;;;;;;;;5121098;28;20020;-88
2022/08/04 14:14:35;;;;;;;3.05;1.50;;;;;;;;;;5120560;28;20023;-85
2022/08/04 14:17:04;;;;;;;4.47;1.50;;;;;;;;;;5121265;28;20020;-91
2022/08/04 14:19:52;;;;;;;4.10;1.60;;;;;;;;;;5121235;28;20218;-87
2022/08/04 14:22:29;;;;;;;6.60;1.73;;;;;;;;;;5109463;28;20019;-82
2022/08/04 14:24:59;;;;;;;5.07;1.67;;;;;;;;;;5113503;28;20039;-86
2022/08/04 14:27:28;;;;;;;5.93;1.77;;;;;;;;;;5121121;28;20091;-85
2022/08/04 14:29:53;;;;;;;4.85;1.60;;;;;;;;;;5123150;28;20042;-86
2022/08/04 14:32:19;;;;;;;4.75;1.80;;;;;;;;;;5125148;28;20031;-84
2022/08/04 14:34:44;;;;;;;5.00;1.70;;;;;;;;;;5124517;28;20054;-82
2022/08/04 14:37:13;;;;;;;6.97;1.52;;;;;;;;;;5126445;28;20316;-86
2022/08/04 14:39:41;;;;;;;4.25;1.67;;;;;;;;;;5124450;28;20023;-86
2022/08/04 14:42:25;;;;;;;15.10;1.85;;;;;;;;;;5129723;28;20046;-85
2022/08/04 14:45:36;;;;;;;3.05;1.50;;;;;;;;;;5118950;28;20034;-82
2022/08/04 14:48:06;;;;;;;5.30;1.80;;;;;;;;;;5122511;28;20064;-86
2022/08/04 14:50:36;;;;;;;2.95;1.70;;;;;;;;;;5122466;28;20032;-82
2022/08/04 14:53:04;;;;;;;6.25;1.60;;;;;;;;;;5130966;28;20044;-84
2022/08/04 14:55:30;;;;;;;3.45;1.60;;;;;;;;;;5122683;28;20065;-83
2022/08/04 14:57:55;;;;;;;5.82;1.70;;;;;;;;;;5123103;28;20015;-84
2022/08/04 15:00:34;;;;;;;4.43;1.90;;;;;;;;;;5125054;28;20043;-83
2022/08/04 15:03:07;;;;;;;4.72;1.80;;;;;;;;;;5117330;28;20030;-87
2022/08/04 15:05:33;;;;;;;6.07;1.70;;;;;;;;;;5120204;28;20020;-83
2022/08/04 15:07:59;;;;;;;3.45;1.63;;;;;;;;;;5116710;28;20090;-85
2022/08/04 15:10:25;;;;;;;3.38;1.70;;;;;;;;;;5123504;28;20227;-86
2022/08/04 15:12:51;;;;;;;4.00;1.55;;;;;;;;;;5124410;28;20335;-86
2022/08/04 15:15:16;;;;;;;4.43;1.73;;;;;;;;;;5123535;28;20083;-85
2022/08/04 15:17:49;;;;;;;7.18;1.92;;;;;;;;;;5123972;28;20021;-83
2022/08/04 15:20:16;;;;;;;6.03;1.65;;;;;;;;;;5123651;28;20331;-86
2022/08/04 15:22:41;;;;;;;5.15;1.80;;;;;;;;;;5116076;28;20019;-88
2022/08/04 15:25:07;;;;;;;5.45;1.63;;;;;;;;;;5122943;28;20027;-79
2022/08/04 15:27:36;;;;;;;8.45;1.80;;;;;;;;;;5123933;28;20012;-84
2022/08/04 15:30:05;;;;;;;5.05;1.70;;;;;;;;;;5123256;28;20023;-85
2022/08/04 15:32:34;;;;;;;3.10;1.67;;;;;;;;;;5113239;28;20024;-85
2022/08/04 15:35:05;;;;;;;6.47;1.80;;;;;;;;;;5111709;28;20019;-81